Time;durP1;ratioP1;P1;durP2;ratioP2;P2;SDS_P1;SDS_P2;PMS_P1;PMS_P2;Temp;Humidity;BMP_temperature;BMP_pressure;BME280_temperature;BME280_humidity;BME280_pressure;Samples;Min_cycle;Max_cycle;Signal;HPM_P1;HPM_P2
2023/12/24 00:00:13;;;;;;;5.10;3.10;;;;;;;13.76;59.45;100762.38;4762605;29;125421;-74
2023/12/24 00:02:40;;;;;;;8.18;3.33;;;;;;;13.76;59.58;100762.38;4765292;29;123731;-74
2023/12/24 00:05:07;;;;;;;6.80;3.13;;;;;;;13.77;59.47;100753.44;4749307;29;119436;-74
2023/12/24 00:07:35;;;;;;;7.22;3.60;;;;;;;13.78;59.36;100748.97;4767631;29;119838;-74
2023/12/24 00:10:02;;;;;;;7.82;3.78;;;;;;;13.79;59.46;100750.69;4753496;29;122182;-74
2023/12/24 00:12:29;;;;;;;6.68;3.20;;;;;;;13.79;59.61;100756.88;4770890;29;124509;-74
2023/12/24 00:14:56;;;;;;;7.38;3.58;;;;;;;13.79;59.41;100754.22;4774377;29;120445;-74
2023/12/24 00:17:23;;;;;;;7.07;3.10;;;;;;;13.79;59.39;100762.19;4772020;29;119517;-74
2023/12/24 00:19:51;;;;;;;6.78;2.97;;;;;;;13.80;59.66;100769.22;4771628;29;125813;-74
2023/12/24 00:22:18;;;;;;;7.22;3.28;;;;;;;13.80;59.48;100769.22;4736538;29;123279;-73
2023/12/24 00:24:45;;;;;;;5.13;3.33;;;;;;;13.81;59.38;100765.63;4771313;29;119225;-74
2023/12/24 00:27:12;;;;;;;6.00;3.20;;;;;;;13.84;59.38;100780.53;4769529;29;119566;-74
2023/12/24 00:29:40;;;;;;;7.57;3.35;;;;;;;13.83;59.46;100766.38;4773425;29;123293;-74
2023/12/24 00:32:09;;;;;;;9.65;3.80;;;;;;;13.85;59.28;100766.28;4757625;29;123243;-74
2023/12/24 00:34:36;;;;;;;5.50;3.30;;;;;;;13.88;59.39;100766.13;4749968;29;118237;-73
2023/12/24 00:37:04;;;;;;;6.72;4.00;;;;;;;13.88;59.38;100743.94;4775560;29;119146;-72
2023/12/24 00:39:31;;;;;;;8.13;4.00;;;;;;;13.89;59.42;100738.53;4775688;29;124210;-73
2023/12/24 00:41:59;;;;;;;7.85;4.38;;;;;;;13.89;59.34;100745.69;4751974;29;124272;-73
2023/12/24 00:44:26;;;;;;;7.85;4.40;;;;;;;13.90;59.10;100734.06;4738166;29;119652;-73
2023/12/24 00:46:53;;;;;;;9.45;4.90;;;;;;;13.89;59.21;100724.38;4764449;29;120278;-73
2023/12/24 00:49:20;;;;;;;7.10;4.40;;;;;;;13.91;59.24;100717.16;4772913;29;124265;-73
2023/12/24 00:51:47;;;;;;;8.55;4.47;;;;;;;13.90;59.38;100700.31;4774186;29;123882;-72
2023/12/24 00:54:15;;;;;;;6.10;3.85;;;;;;;13.90;59.19;100699.44;4754684;29;118544;-72
2023/12/24 00:56:42;;;;;;;7.25;3.67;;;;;;;13.90;59.10;100683.47;4768646;29;119269;-73
2023/12/24 00:59:09;;;;;;;5.32;3.05;;;;;;;13.88;59.10;100669.41;4771418;29;124366;-73
2023/12/24 01:01:37;;;;;;;6.43;3.30;;;;;;;13.88;59.00;100664.06;4768834;29;123405;-72
2023/12/24 01:04:04;;;;;;;4.97;3.30;;;;;;;13.86;59.05;100644.69;4767279;29;119750;-73
2023/12/24 01:06:31;;;;;;;7.47;3.15;;;;;;;13.87;59.08;100647.25;4761017;29;118318;-72
2023/12/24 01:08:58;;;;;;;5.82;2.70;;;;;;;13.86;58.76;100634.03;4768827;29;125015;-72
2023/12/24 01:11:25;;;;;;;5.72;2.75;;;;;;;13.85;58.55;100630.53;4774411;29;124502;-72
2023/12/24 01:13:52;;;;;;;7.43;2.40;;;;;;;13.85;58.68;100616.38;4769052;29;119959;-72
2023/12/24 01:16:20;;;;;;;5.05;2.13;;;;;;;13.83;58.67;100630.63;4772960;29;119380;-73
2023/12/24 01:18:48;;;;;;;4.72;2.20;;;;;;;13.83;58.57;100625.28;4771306;29;123572;-72
2023/12/24 01:21:15;;;;;;;3.88;1.90;;;;;;;13.83;58.55;100651.91;4773050;29;124299;-72
2023/12/24 01:23:42;;;;;;;6.28;2.00;;;;;;;13.82;58.58;100636.91;4758262;29;119996;-72
2023/12/24 01:26:10;;;;;;;3.67;1.60;;;;;;;13.81;58.49;100627.19;4770933;29;119100;-75
2023/12/24 01:28:38;;;;;;;3.25;1.60;;;;;;;13.83;58.50;100629.78;4768725;29;124365;-75
2023/12/24 01:31:05;;;;;;;4.25;1.60;;;;;;;13.84;58.44;100626.13;4764936;29;124221;-75
2023/12/24 01:33:32;;;;;;;5.03;1.75;;;;;;;13.85;58.46;100627.03;4768963;29;119555;-75
2023/12/24 01:36:00;;;;;;;5.75;1.88;;;;;;;13.83;58.42;100630.63;4753845;29;121534;-73
2023/12/24 01:38:27;;;;;;;5.07;2.08;;;;;;;13.85;58.50;100627.03;4760266;29;124651;-74
2023/12/24 01:40:54;;;;;;;4.40;1.83;;;;;;;13.85;58.58;100637.66;4755432;29;123595;-73
2023/12/24 01:43:21;;;;;;;6.03;1.90;;;;;;;13.86;58.51;100628.72;4747153;29;119001;-74
2023/12/24 01:45:48;;;;;;;7.60;1.90;;;;;;;13.87;58.55;100641.09;4757645;29;118720;-73
2023/12/24 01:48:16;;;;;;;8.88;1.90;;;;;;;13.85;58.50;100643.00;4772306;29;124145;-73
2023/12/24 01:50:47;;;;;;;4.93;2.05;;;;;;;13.82;58.68;100644.91;4757975;29;123307;-74
2023/12/24 01:53:17;;;;;;;4.57;2.35;;;;;;;13.81;58.78;100647.66;4750293;29;117190;-73
2023/12/24 01:55:47;;;;;;;7.05;2.17;;;;;;;13.78;58.97;100650.50;4773562;29;118743;-73
2023/12/24 01:58:15;;;;;;;6.03;2.33;;;;;;;13.74;59.01;100652.47;4744610;29;124062;-73
2023/12/24 02:00:43;;;;;;;5.82;1.85;;;;;;;13.70;59.17;100648.31;4770639;29;123746;-73
2023/12/24 02:03:10;;;;;;;4.78;2.05;;;;;;;13.64;59.30;100651.34;4766181;29;118860;-73
2023/12/24 02:05:37;;;;;;;9.23;2.22;;;;;;;13.62;59.49;100647.94;4753599;29;118240;-73
2023/12/24 02:08:07;;;;;;;6.10;2.22;;;;;;;13.58;59.54;100646.38;4769527;29;124463;-73
2023/12/24 02:10:35;;;;;;;7.75;1.83;;;;;;;13.55;59.70;100654.56;4769192;29;123587;-73
2023/12/24 02:13:02;;;;;;;7.03;2.35;;;;;;;13.51;59.88;100637.06;4774919;29;119717;-73
2023/12/24 02:15:30;;;;;;;9.00;2.40;;;;;;;13.47;60.02;100638.19;4765441;29;119304;-74
2023/12/24 02:17:59;;;;;;;7.53;2.38;;;;;;;13.44;60.18;100629.44;4755136;29;123569;-73
2023/12/24 02:20:27;;;;;;;4.40;1.88;;;;;;;13.41;60.25;100632.31;4758690;29;124175;-73
2023/12/24 02:22:54;;;;;;;6.50;2.20;;;;;;;13.39;60.41;100626.22;4763947;29;120921;-74
2023/12/24 02:25:23;;;;;;;4.80;1.98;;;;;;;13.36;60.47;100621.09;4770796;29;119937;-74
2023/12/24 02:28:14;;;;;;;8.63;2.17;;;;;;;13.34;60.74;100612.34;4756161;29;122930;-74
2023/12/24 02:30:45;;;;;;;6.22;1.85;;;;;;;13.32;60.88;100608.06;4771852;29;123865;-73
2023/12/24 02:33:16;;;;;;;8.23;2.55;;;;;;;13.30;61.04;100605.50;4771146;29;118322;-74
2023/12/24 02:35:46;;;;;;;8.05;2.25;;;;;;;13.29;61.04;100603.75;4770197;29;118719;-73
2023/12/24 02:38:14;;;;;;;8.88;2.42;;;;;;;13.28;61.38;100596.72;4768347;29;123569;-74
2023/12/24 02:40:41;;;;;;;8.23;2.40;;;;;;;13.27;61.43;100600.31;4772610;29;124877;-73
2023/12/24 02:43:08;;;;;;;8.70;2.33;;;;;;;13.26;61.66;100598.63;4772074;29;121042;-74
2023/12/24 02:45:38;;;;;;;7.05;2.40;;;;;;;13.26;61.70;100588.00;4756497;29;117448;-73
2023/12/24 02:48:05;;;;;;;10.55;2.60;;;;;;;13.26;61.65;100588.00;4746834;29;123726;-74
2023/12/24 02:50:32;;;;;;;7.30;2.70;;;;;;;13.26;61.75;100577.34;4778790;29;123970;-74
2023/12/24 02:52:59;;;;;;;5.88;2.10;;;;;;;13.26;61.80;100574.69;4771228;29;119231;-74
2023/12/24 02:55:27;;;;;;;6.40;2.58;;;;;;;13.25;61.95;100565.84;4758067;29;118965;-74
2023/12/24 02:57:54;;;;;;;9.02;2.60;;;;;;;13.26;62.04;100566.72;4761722;29;123433;-73
2023/12/24 03:00:21;;;;;;;6.28;2.10;;;;;;;13.26;62.12;100566.72;4774128;29;124145;-74
2023/12/24 03:02:49;;;;;;;6.88;2.38;;;;;;;13.26;62.34;100569.38;4771563;29;119843;-74
2023/12/24 03:05:16;;;;;;;6.43;2.70;;;;;;;13.26;62.48;100561.38;4772455;29;119137;-74
2023/12/24 03:07:43;;;;;;;5.57;2.50;;;;;;;13.26;62.55;100548.09;4747315;29;124360;-74
2023/12/24 03:10:11;;;;;;;3.65;2.25;;;;;;;13.26;62.63;100553.41;4769757;29;125330;-73
2023/12/24 03:12:38;;;;;;;6.32;2.33;;;;;;;13.27;62.79;100555.09;4753833;29;120907;-73
2023/12/24 03:15:06;;;;;;;8.15;2.35;;;;;;;13.27;62.92;100549.78;4773872;29;118805;-74
2023/12/24 03:17:33;;;;;;;4.65;2.30;;;;;;;13.27;62.92;100541.81;4769265;29;124210;-73
2023/12/24 03:20:00;;;;;;;5.75;2.30;;;;;;;13.28;62.97;100543.53;4769997;29;123748;-73
2023/12/24 03:22:28;;;;;;;5.25;2.50;;;;;;;13.28;63.21;100538.22;4776232;29;118461;-73
2023/12/24 03:24:55;;;;;;;5.13;2.38;;;;;;;13.27;63.12;100531.16;4777289;29;117360;-73
2023/12/24 03:27:23;;;;;;;6.85;2.65;;;;;;;13.27;63.25;100539.16;4776765;29;123832;-73
2023/12/24 03:29:50;;;;;;;5.03;2.38;;;;;;;13.27;63.57;100520.53;4779400;29;123756;-74
2023/12/24 03:32:18;;;;;;;4.47;2.83;;;;;;;13.27;63.26;100523.19;4762072;29;119320;-74
2023/12/24 03:34:45;;;;;;;5.97;2.80;;;;;;;13.28;63.74;100532.91;4761474;29;118490;-74
2023/12/24 03:37:12;;;;;;;8.90;3.33;;;;;;;13.27;63.84;100525.84;4775822;29;124523;-74
2023/12/24 03:39:39;;;;;;;3.90;2.53;;;;;;;13.28;63.69;100526.69;4746679;29;123581;-73
2023/12/24 03:42:06;;;;;;;5.75;2.40;;;;;;;13.29;63.74;100525.75;4753503;29;118867;-74
2023/12/24 03:44:34;;;;;;;6.30;2.40;;;;;;;13.29;64.13;100517.78;4760899;29;119790;-73
2023/12/24 03:47:02;;;;;;;3.00;1.90;;;;;;;13.28;64.06;100519.59;4760712;29;123726;-74
2023/12/24 03:49:29;;;;;;;3.42;1.77;;;;;;;13.30;64.27;100508.84;4767859;29;123004;-74
2023/12/24 03:51:56;;;;;;;4.40;1.80;;;;;;;13.31;64.08;100506.13;4776169;29;119392;-74
2023/12/24 03:54:23;;;;;;;3.17;1.55;;;;;;;13.29;64.29;100508.00;4765309;29;117825;-74
2023/12/24 03:56:51;;;;;;;5.15;1.70;;;;;;;13.31;64.48;100510.59;4768463;29;124147;-74
2023/12/24 03:59:18;;;;;;;2.42;1.40;;;;;;;13.31;64.34;100499.97;4772592;29;124388;-74
2023/12/24 04:01:45;;;;;;;3.13;1.40;;;;;;;13.31;64.53;100506.13;4760929;29;119722;-73
2023/12/24 04:04:12;;;;;;;5.20;1.48;;;;;;;13.32;64.69;100507.84;4778279;29;119725;-73
2023/12/24 04:06:39;;;;;;;2.38;1.40;;;;;;;13.33;64.82;100498.06;4762309;29;123288;-74
2023/12/24 04:09:09;;;;;;;2.08;1.15;;;;;;;13.34;64.61;100495.31;4768928;29;124344;-74
2023/12/24 04:11:36;;;;;;;3.03;1.20;;;;;;;13.35;64.95;100502.31;4756987;29;118452;-74
2023/12/24 04:14:03;;;;;;;3.20;1.10;;;;;;;13.38;64.85;100502.13;4760711;29;118536;-74
2023/12/24 04:16:31;;;;;;;2.10;1.00;;;;;;;13.38;64.93;100496.81;4754047;29;124862;-74
2023/12/24 04:18:58;;;;;;;2.05;0.90;;;;;;;13.39;64.95;100493.22;4771206;29;124034;-74
2023/12/24 04:21:27;;;;;;;1.90;0.90;;;;;;;13.39;65.25;100482.56;4768822;29;118212;-73
2023/12/24 04:23:54;;;;;;;3.08;1.00;;;;;;;13.40;65.22;100484.28;4761138;29;118416;-73
2023/12/24 04:26:22;;;;;;;1.88;0.70;;;;;;;13.42;65.24;100482.38;4768536;29;124404;-74
2023/12/24 04:28:49;;;;;;;1.08;0.70;;;;;;;13.43;65.16;100486.75;4756421;29;123177;-73
2023/12/24 04:31:16;;;;;;;1.73;0.68;;;;;;;13.44;65.31;100480.47;4755915;29;118896;-74
2023/12/24 04:33:44;;;;;;;1.73;0.70;;;;;;;13.46;65.32;100476.88;4754918;29;118039;-73
2023/12/24 04:36:22;;;;;;;0.68;0.60;;;;;;;13.46;65.51;100476.88;4752124;29;123226;-75
2023/12/24 04:38:49;;;;;;;1.45;0.60;;;;;;;13.47;65.39;100478.56;4761608;29;124610;-72
2023/12/24 04:41:17;;;;;;;0.80;0.63;;;;;;;13.47;65.48;100483.88;4762065;29;118805;-73
2023/12/24 04:43:46;;;;;;;0.90;0.60;;;;;;;13.48;65.66;100480.28;4750780;29;118761;-72
2023/12/24 04:46:13;;;;;;;0.77;0.60;;;;;;;13.48;65.65;100472.31;4771872;29;123818;-72
2023/12/24 04:48:40;;;;;;;1.48;0.60;;;;;;;13.49;65.67;100466.03;4747659;29;123500;-73
2023/12/24 04:51:07;;;;;;;0.95;0.63;;;;;;;13.51;65.70;100469.47;4755289;29;120055;-73
2023/12/24 04:53:35;;;;;;;1.88;0.70;;;;;;;13.51;65.85;100472.13;4741787;29;119087;-73
2023/12/24 04:56:02;;;;;;;1.00;0.70;;;;;;;13.51;65.87;100458.81;4775622;29;123882;-73
2023/12/24 04:58:30;;;;;;;1.33;0.70;;;;;;;13.53;65.95;100467.56;4753559;29;123897;-72
2023/12/24 05:00:57;;;;;;;1.20;0.77;;;;;;;13.53;65.84;100472.88;4741015;29;119065;-73
2023/12/24 05:03:24;;;;;;;1.38;0.80;;;;;;;13.54;65.90;100471.91;4761962;29;119052;-72
2023/12/24 05:05:51;;;;;;;1.30;0.70;;;;;;;13.55;66.03;100465.66;4777590;29;124016;-73
2023/12/24 05:08:19;;;;;;;0.80;0.63;;;;;;;13.55;66.00;100460.31;4756472;29;123818;-73
2023/12/24 05:10:46;;;;;;;1.05;0.70;;;;;;;13.55;66.29;100465.66;4772224;29;118335;-73
2023/12/24 05:13:13;;;;;;;1.00;0.60;;;;;;;13.56;66.03;100462.00;4760628;29;118120;-73
2023/12/24 05:15:41;;;;;;;0.80;0.60;;;;;;;13.56;66.19;100457.56;4772593;29;124021;-73
2023/12/24 05:18:08;;;;;;;0.90;0.70;;;;;;;13.58;66.20;100454.78;4772838;29;124116;-73
2023/12/24 05:20:35;;;;;;;0.95;0.52;;;;;;;13.59;66.28;100456.50;4763208;29;119007;-72
2023/12/24 05:23:02;;;;;;;1.25;0.70;;;;;;;13.58;66.20;100444.16;4775286;29;119234;-73
2023/12/24 05:25:29;;;;;;;1.13;0.70;;;;;;;13.61;66.28;100449.28;4774568;29;124618;-72
2023/12/24 05:27:57;;;;;;;1.92;0.60;;;;;;;13.61;66.28;100449.28;4769579;29;124421;-72
2023/12/24 05:30:24;;;;;;;0.80;0.60;;;;;;;13.62;66.40;100448.34;4770873;29;118083;-73
2023/12/24 05:32:51;;;;;;;0.95;0.77;;;;;;;13.63;66.26;100447.38;4770772;29;119045;-73
2023/12/24 05:35:18;;;;;;;0.70;0.60;;;;;;;13.63;66.25;100452.69;4761944;29;124046;-73
2023/12/24 05:37:46;;;;;;;1.20;0.80;;;;;;;13.63;66.22;100447.38;4759773;29;124322;-72
2023/12/24 05:40:13;;;;;;;0.80;0.70;;;;;;;13.63;66.38;100458.88;4754506;29;119288;-73
2023/12/24 05:42:42;;;;;;;0.70;0.60;;;;;;;13.63;66.54;100453.53;4760370;29;120601;-72
2023/12/24 05:45:12;;;;;;;0.85;0.63;;;;;;;13.65;66.50;100450.78;4746122;29;122943;-72
2023/12/24 05:47:40;;;;;;;0.68;0.60;;;;;;;13.66;66.51;100449.84;4773859;29;124875;-73
2023/12/24 05:50:08;;;;;;;0.60;0.50;;;;;;;13.68;66.56;100455.91;4754139;29;118798;-73
2023/12/24 05:52:37;;;;;;;0.73;0.60;;;;;;;13.66;66.72;100444.53;4776848;29;119055;-72
2023/12/24 05:55:06;;;;;;;1.00;0.63;;;;;;;13.69;66.76;100441.66;4760701;29;123942;-75
2023/12/24 05:57:33;;;;;;;0.90;0.60;;;;;;;13.68;66.56;100437.28;4775905;29;123904;-73
2023/12/24 06:00:01;;;;;;;0.80;0.60;;;;;;;13.69;66.64;100436.31;4775076;29;119342;-73
2023/12/24 06:02:38;;;;;;;0.80;0.60;;;;;;;13.70;66.70;100438.03;4772740;29;120138;-73
2023/12/24 06:05:06;;;;;;;0.75;0.63;;;;;;;13.71;66.52;100434.44;4764038;29;124483;-73
2023/12/24 06:07:33;;;;;;;0.90;0.68;;;;;;;13.71;66.95;100445.09;4753083;29;123290;-73
2023/12/24 06:10:00;;;;;;;0.85;0.60;;;;;;;13.72;66.79;100436.13;4742402;29;118434;-73
2023/12/24 06:12:28;;;;;;;0.90;0.70;;;;;;;13.72;66.79;100446.78;4776268;29;118594;-73
2023/12/24 06:14:56;;;;;;;0.80;0.70;;;;;;;13.74;66.95;100439.56;4752426;29;123833;-73
2023/12/24 06:17:23;;;;;;;0.93;0.77;;;;;;;13.75;66.91;100430.63;4769016;29;124115;-73
2023/12/24 06:19:50;;;;;;;1.10;0.70;;;;;;;13.75;66.87;100435.94;4758468;29;118654;-73
2023/12/24 06:22:17;;;;;;;1.15;0.70;;;;;;;13.75;67.00;100435.94;4764462;29;119666;-73
2023/12/24 06:24:44;;;;;;;0.75;0.60;;;;;;;13.76;66.95;100436.78;4775218;29;123714;-73
2023/12/24 06:27:12;;;;;;;0.80;0.65;;;;;;;13.76;67.02;100429.66;4774650;29;126218;-73
2023/12/24 06:29:39;;;;;;;1.60;0.80;;;;;;;13.76;66.93;100419.00;4760223;29;120042;-73
2023/12/24 06:32:06;;;;;;;0.95;0.75;;;;;;;13.77;66.98;100428.72;4769997;29;120056;-74
2023/12/24 06:34:33;;;;;;;1.13;0.70;;;;;;;13.78;67.07;100419.75;4774480;29;123678;-73
2023/12/24 06:37:00;;;;;;;1.27;0.70;;;;;;;13.78;67.05;100425.09;4759037;29;123583;-74
2023/12/24 06:39:28;;;;;;;0.80;0.70;;;;;;;13.78;67.18;100425.09;4764463;29;118975;-73
2023/12/24 06:41:55;;;;;;;0.80;0.75;;;;;;;13.80;67.12;100417.00;4763274;29;118071;-73
2023/12/24 06:44:23;;;;;;;0.70;0.63;;;;;;;13.80;67.19;100412.53;4772999;29;123935;-73
2023/12/24 06:46:50;;;;;;;1.00;0.70;;;;;;;13.80;67.23;100417.84;4776497;29;124835;-74
2023/12/24 06:49:18;;;;;;;2.22;0.60;;;;;;;13.80;67.35;100417.84;4780234;29;119458;-73
2023/12/24 06:51:45;;;;;;;1.25;0.80;;;;;;;13.83;67.24;100419.47;4762601;29;118480;-73
2023/12/24 06:54:12;;;;;;;1.00;0.70;;;;;;;13.83;67.31;100417.66;4762835;29;124406;-73
2023/12/24 06:56:39;;;;;;;0.82;0.65;;;;;;;13.86;67.30;100421.06;4763111;29;123914;-73
2023/12/24 06:59:07;;;;;;;0.60;0.60;;;;;;;13.86;67.39;100413.09;4738372;29;119081;-73
2023/12/24 07:01:34;;;;;;;0.80;0.70;;;;;;;13.88;67.45;100425.34;4762261;29;118593;-74
2023/12/24 07:04:01;;;;;;;1.13;0.70;;;;;;;13.89;67.27;100420.88;4762225;29;124055;-74
2023/12/24 07:06:28;;;;;;;1.02;0.80;;;;;;;13.90;67.44;100422.56;4767597;29;123724;-74
2023/12/24 07:08:55;;;;;;;1.35;0.70;;;;;;;13.91;67.49;100424.28;4758999;29;120012;-73
2023/12/24 07:11:22;;;;;;;1.20;0.90;;;;;;;13.92;67.34;100426.88;4766099;29;119608;-73
2023/12/24 07:13:49;;;;;;;1.35;0.75;;;;;;;13.95;67.45;100420.47;4770890;29;124966;-73
2023/12/24 07:16:17;;;;;;;1.15;0.80;;;;;;;13.94;67.35;100429.44;4775208;29;124890;-73
2023/12/24 07:18:44;;;;;;;1.05;0.80;;;;;;;13.95;67.55;100428.47;4767362;29;120161;-74
2023/12/24 07:21:11;;;;;;;0.98;0.80;;;;;;;13.95;67.62;100415.16;4778898;29;120581;-73
2023/12/24 07:23:38;;;;;;;1.92;0.77;;;;;;;13.97;67.69;100429.22;4762254;29;123458;-74
2023/12/24 07:26:06;;;;;;;1.00;0.90;;;;;;;13.97;67.63;100429.22;4778801;29;123866;-73
2023/12/24 07:28:34;;;;;;;1.27;0.90;;;;;;;13.98;67.67;100420.28;4761489;29;118623;-73
2023/12/24 07:31:01;;;;;;;1.88;0.70;;;;;;;14.00;67.51;100413.03;4773025;29;118727;-73
2023/12/24 07:33:28;;;;;;;0.70;0.57;;;;;;;14.00;67.41;100413.88;4758498;29;123966;-73
2023/12/24 07:35:56;;;;;;;0.90;0.60;;;;;;;14.02;67.31;100416.44;4760589;29;123653;-74
2023/12/24 07:38:23;;;;;;;0.90;0.70;;;;;;;14.02;67.43;100416.44;4772983;29;119606;-74
2023/12/24 07:40:50;;;;;;;0.98;0.60;;;;;;;14.03;67.54;100407.50;4774309;29;119052;-73
2023/12/24 07:43:17;;;;;;;0.90;0.70;;;;;;;14.04;67.41;100419.88;4760807;29;123558;-73
2023/12/24 07:45:45;;;;;;;0.85;0.70;;;;;;;14.05;67.31;100410.91;4751309;29;124557;-74
2023/12/24 07:48:12;;;;;;;1.08;0.88;;;;;;;14.08;67.45;100415.19;4773485;29;119147;-73
2023/12/24 07:50:39;;;;;;;1.15;0.80;;;;;;;14.08;67.41;100421.34;4771130;29;118703;-74
2023/12/24 07:53:07;;;;;;;1.30;0.85;;;;;;;14.09;67.32;100428.41;4767431;29;124558;-73
2023/12/24 07:55:34;;;;;;;1.10;0.80;;;;;;;14.10;67.31;100422.09;4761448;29;123899;-74
2023/12/24 07:58:01;;;;;;;1.17;0.70;;;;;;;14.11;67.30;100414.97;4773495;29;118282;-73
2023/12/24 08:00:29;;;;;;;0.93;0.60;;;;;;;14.12;67.24;100412.19;4768716;29;119283;-73
2023/12/24 08:02:56;;;;;;;1.25;0.90;;;;;;;14.12;67.25;100414.88;4778380;29;125108;-73
2023/12/24 08:05:23;;;;;;;1.30;0.70;;;;;;;14.13;67.00;100408.59;4756972;29;124019;-73
2023/12/24 08:07:51;;;;;;;1.20;0.82;;;;;;;14.12;67.22;100412.19;4775440;29;121153;-73
2023/12/24 08:10:18;;;;;;;0.95;0.65;;;;;;;14.12;67.17;100404.22;4790957;29;120672;-73
2023/12/24 08:12:45;;;;;;;1.02;0.60;;;;;;;14.13;67.07;100408.59;4772055;29;123472;-74
2023/12/24 08:15:14;;;;;;;0.88;0.60;;;;;;;14.14;67.12;100399.63;4768260;29;124656;-74
2023/12/24 08:17:41;;;;;;;1.40;0.80;;;;;;;14.15;67.06;100412.00;4762990;29;119108;-74
2023/12/24 08:20:10;;;;;;;1.45;0.70;;;;;;;14.15;67.07;100412.00;4761398;29;119190;-74
2023/12/24 08:22:37;;;;;;;1.48;0.63;;;;;;;14.17;67.16;100415.44;4772474;29;124013;-74
2023/12/24 08:25:04;;;;;;;1.10;0.68;;;;;;;14.17;67.15;100411.91;4755125;29;123272;-74
2023/12/24 08:27:31;;;;;;;1.00;0.70;;;;;;;14.17;67.24;100407.44;4757360;29;118802;-74
2023/12/24 08:29:59;;;;;;;0.85;0.60;;;;;;;14.20;67.29;100403.69;4744675;29;119483;-73
2023/12/24 08:32:26;;;;;;;0.73;0.50;;;;;;;14.20;67.16;100399.25;4762623;29;124786;-73
2023/12/24 08:34:56;;;;;;;0.70;0.60;;;;;;;14.23;67.22;100392.00;4769263;29;123959;-74
2023/12/24 08:37:23;;;;;;;0.68;0.50;;;;;;;14.23;67.17;100394.66;4770004;29;119239;-73
2023/12/24 08:39:50;;;;;;;0.40;0.40;;;;;;;14.23;67.12;100397.34;4776989;29;119660;-74
2023/12/24 08:42:18;;;;;;;1.30;0.60;;;;;;;14.23;67.06;100392.00;4776700;29;124922;-74
2023/12/24 08:44:45;;;;;;;0.75;0.57;;;;;;;14.24;67.06;100399.03;4761411;29;124340;-73
2023/12/24 08:47:12;;;;;;;0.70;0.50;;;;;;;14.25;67.06;100392.75;4759165;29;119392;-74
2023/12/24 08:49:39;;;;;;;0.50;0.40;;;;;;;14.26;67.01;100391.78;4777306;29;118084;-74
2023/12/24 08:52:06;;;;;;;0.90;0.50;;;;;;;14.25;67.10;100393.59;4776576;29;124013;-74
2023/12/24 08:54:34;;;;;;;0.82;0.43;;;;;;;14.26;67.19;100397.09;4776937;29;124059;-73
2023/12/24 08:57:01;;;;;;;0.60;0.60;;;;;;;14.27;67.09;100393.50;4766992;29;120723;-73
2023/12/24 08:59:29;;;;;;;0.60;0.50;;;;;;;14.28;67.26;100389.88;4766832;29;119579;-74
2023/12/24 09:01:56;;;;;;;0.82;0.57;;;;;;;14.29;67.29;100396.91;4777456;29;123877;-74
2023/12/24 09:04:23;;;;;;;0.80;0.70;;;;;;;14.30;67.14;100404.81;4777523;29;123902;-74
2023/12/24 09:06:51;;;;;;;0.85;0.60;;;;;;;14.30;67.00;100409.28;4761169;29;118629;-74
2023/12/24 09:09:18;;;;;;;1.13;0.70;;;;;;;14.33;67.22;100414.38;4761274;29;120313;-73
2023/12/24 09:11:47;;;;;;;1.35;0.70;;;;;;;14.33;67.19;100409.06;4768835;29;124068;-74
2023/12/24 09:14:14;;;;;;;1.05;0.65;;;;;;;14.36;67.05;100419.53;4769767;29;123592;-74
2023/12/24 09:16:42;;;;;;;0.88;0.65;;;;;;;14.38;67.06;100422.94;4759801;29;118887;-73
2023/12/24 09:19:09;;;;;;;0.88;0.65;;;;;;;14.40;67.15;100421.00;4761042;29;119823;-73
2023/12/24 09:21:37;;;;;;;0.70;0.60;;;;;;;14.40;67.10;100426.34;4755285;29;125219;-74
2023/12/24 09:24:06;;;;;;;1.08;0.77;;;;;;;14.42;67.12;100419.09;4771219;29;123992;-73
2023/12/24 09:26:33;;;;;;;0.85;0.70;;;;;;;14.43;67.06;100418.16;4770904;29;119368;-74
2023/12/24 09:29:01;;;;;;;1.02;0.70;;;;;;;14.44;67.07;100422.50;4760697;29;120195;-74
2023/12/24 09:31:30;;;;;;;1.20;0.82;;;;;;;14.45;67.12;100418.91;4774437;29;124567;-73
2023/12/24 09:33:59;;;;;;;1.08;0.68;;;;;;;14.46;67.16;100411.75;4772855;29;124494;-74
2023/12/24 09:36:26;;;;;;;0.90;0.70;;;;;;;14.47;67.17;100411.66;4760006;29;119424;-74
2023/12/24 09:38:53;;;;;;;0.63;0.57;;;;;;;14.49;67.32;100403.56;4758769;29;118838;-74
2023/12/24 09:41:21;;;;;;;1.00;0.70;;;;;;;14.51;66.96;100399.81;4767334;29;126613;-73
2023/12/24 09:43:49;;;;;;;1.02;0.75;;;;;;;14.52;67.31;100398.88;4760523;29;123193;-74
2023/12/24 09:46:16;;;;;;;0.90;0.68;;;;;;;14.54;67.18;100396.94;4777629;29;121036;-74
2023/12/24 09:48:46;;;;;;;1.73;0.65;;;;;;;14.56;67.17;100395.03;4763171;29;120823;-74
2023/12/24 09:51:14;;;;;;;1.00;0.60;;;;;;;14.57;67.18;100398.56;4762125;29;124146;-74
2023/12/24 09:53:44;;;;;;;0.93;0.60;;;;;;;14.58;67.22;100397.63;4773777;29;124700;-74
2023/12/24 09:56:12;;;;;;;0.95;0.60;;;;;;;14.59;67.13;100389.50;4771334;29;118433;-75
2023/12/24 09:58:41;;;;;;;0.93;0.60;;;;;;;14.60;67.16;100399.22;4770194;29;118828;-75
2023/12/24 10:01:08;;;;;;;1.10;0.70;;;;;;;14.62;67.29;100392.91;4768252;29;124201;-75
2023/12/24 10:03:35;;;;;;;1.08;0.65;;;;;;;14.62;67.46;100398.25;4773158;29;123293;-75
2023/12/24 10:06:07;;;;;;;1.05;0.70;;;;;;;14.64;67.21;100391.03;4767978;29;119067;-75
2023/12/24 10:08:35;;;;;;;0.90;0.80;;;;;;;14.64;67.12;100386.53;4770835;29;119068;-75
2023/12/24 10:11:25;;;;;;;1.02;0.70;;;;;;;14.66;67.31;100394.44;4772855;29;124003;-75
2023/12/24 10:14:01;;;;;;;0.70;0.60;;;;;;;14.67;67.22;100396.97;4771112;29;124641;-75
2023/12/24 10:16:28;;;;;;;1.13;0.70;;;;;;;14.68;67.33;100392.50;4750978;29;120408;-74
2023/12/24 10:18:55;;;;;;;1.27;0.77;;;;;;;14.70;67.39;100401.25;4768992;29;118502;-74
2023/12/24 10:21:23;;;;;;;1.10;0.80;;;;;;;14.71;67.14;100402.94;4768993;29;123783;-74
2023/12/24 10:23:50;;;;;;;1.25;0.80;;;;;;;14.71;67.10;100387.81;4754698;29;123033;-74
2023/12/24 10:26:20;;;;;;;1.38;0.70;;;;;;;14.71;67.38;100379.81;4761266;29;119434;-74
2023/12/24 10:28:52;;;;;;;1.70;0.90;;;;;;;14.73;67.28;100390.34;4767345;29;118617;-74
2023/12/24 10:31:30;;;;;;;2.72;1.20;;;;;;;14.75;67.37;100399.97;4766059;29;124637;-74
2023/12/24 10:33:59;;;;;;;3.25;1.58;;;;;;;14.77;67.30;100386.53;4771776;29;125301;-74
2023/12/24 10:36:27;;;;;;;2.97;1.60;;;;;;;14.78;67.40;100398.88;4770450;29;121466;-74
2023/12/24 10:38:55;;;;;;;3.75;1.85;;;;;;;14.81;67.46;100398.69;4769962;29;121570;-74
2023/12/24 10:41:22;;;;;;;4.47;2.25;;;;;;;14.82;67.29;100395.03;4759276;29;123961;-74
2023/12/24 10:43:49;;;;;;;4.60;2.20;;;;;;;14.84;67.42;100393.13;4770447;29;125332;-74
2023/12/24 10:46:16;;;;;;;6.05;2.83;;;;;;;14.86;67.35;100385.03;4770751;29;119328;-74
2023/12/24 10:48:43;;;;;;;6.22;3.33;;;;;;;14.88;67.55;100383.97;4758068;29;119103;-74
2023/12/24 10:51:11;;;;;;;8.65;3.60;;;;;;;14.90;67.38;100390.03;4754973;29;124242;-74
2023/12/24 10:53:43;;;;;;;7.55;3.60;;;;;;;14.91;67.48;100373.06;4754735;29;124200;-74
2023/12/24 10:56:17;;;;;;;7.93;3.80;;;;;;;14.94;67.54;100372.88;4760128;29;118338;-74
2023/12/24 10:58:57;;;;;;;7.53;3.90;;;;;;;14.97;67.56;100372.66;4765846;29;119785;-74
2023/12/24 11:01:24;;;;;;;10.48;4.18;;;;;;;15.01;67.30;100367.09;4772596;29;124668;-74
2023/12/24 11:03:53;;;;;;;8.88;4.18;;;;;;;15.04;67.71;100372.22;4773066;29;124478;-74
2023/12/24 11:06:50;;;;;;;10.77;4.47;;;;;;;15.04;67.50;100366.88;4771806;29;118413;-74
2023/12/24 11:09:17;;;;;;;7.78;4.18;;;;;;;15.07;67.41;100361.31;4759033;29;118813;-74
2023/12/24 11:11:51;;;;;;;9.85;3.90;;;;;;;15.08;67.46;100357.69;4774893;29;123918;-74
2023/12/24 11:14:51;;;;;;;9.68;3.80;;;;;;;15.09;67.46;100359.41;4773636;29;124474;-74
2023/12/24 11:17:33;;;;;;;6.88;3.80;;;;;;;15.11;67.43;100352.16;4720371;29;119163;-74
2023/12/24 11:20:24;;;;;;;7.68;3.28;;;;;;;15.13;67.46;100339.53;4757175;29;118970;-74